Time;durP1;ratioP1;P1;durP2;ratioP2;P2;SDS_P1;SDS_P2;PMS_P1;PMS_P2;Temp;Humidity;BMP_temperature;BMP_pressure;BME280_temperature;BME280_humidity;BME280_pressure;Samples;Min_cycle;Max_cycle;Signal;HPM_P1;HPM_P2
2023/08/15 00:01:06;;;;;;;0.30;0.30;;;19.90;99.90;;;;;;5054221;28;20037;-78
2023/08/15 00:03:32;;;;;;;0.27;0.27;;;19.80;99.90;;;;;;5054204;28;20469;-78
2023/08/15 00:05:58;;;;;;;0.28;0.28;;;19.80;99.90;;;;;;5054247;28;20120;-78
2023/08/15 00:08:24;;;;;;;0.50;0.50;;;19.80;99.90;;;;;;5053817;28;20121;-79
2023/08/15 00:10:50;;;;;;;0.37;0.37;;;19.80;99.90;;;;;;5054020;28;20040;-82
2023/08/15 00:13:15;;;;;;;0.30;0.30;;;19.70;99.90;;;;;;5054279;28;20088;-82
2023/08/15 00:15:41;;;;;;;0.30;0.30;;;19.80;99.90;;;;;;5054258;28;20058;-82
2023/08/15 00:18:07;;;;;;;0.40;0.40;;;19.70;99.90;;;;;;5054013;28;20469;-81
2023/08/15 00:20:33;;;;;;;0.23;0.23;;;19.70;99.90;;;;;;5054014;28;20080;-82
2023/08/15 00:22:59;;;;;;;0.20;0.20;;;19.70;99.90;;;;;;5053935;28;20045;-79
2023/08/15 00:25:24;;;;;;;0.60;0.60;;;19.70;99.90;;;;;;5053757;28;20296;-80
2023/08/15 00:27:50;;;;;;;0.20;0.20;;;19.70;99.90;;;;;;5054333;28;20124;-79
2023/08/15 00:30:16;;;;;;;0.30;0.30;;;19.60;99.90;;;;;;5053882;28;20051;-83
2023/08/15 00:32:41;;;;;;;0.30;0.30;;;19.60;99.90;;;;;;5053680;28;20044;-82
2023/08/15 00:35:08;;;;;;;3.00;0.60;;;19.50;99.90;;;;;;5053623;28;20037;-80
2023/08/15 00:37:34;;;;;;;0.40;0.40;;;19.50;99.90;;;;;;5053730;28;20051;-79
2023/08/15 00:40:00;;;;;;;0.47;0.47;;;19.40;99.90;;;;;;5053572;28;20120;-78
2023/08/15 00:42:26;;;;;;;0.30;0.30;;;19.40;99.90;;;;;;5054006;28;20037;-78
2023/08/15 00:44:52;;;;;;;0.30;0.30;;;19.40;99.90;;;;;;5053511;28;20033;-82
2023/08/15 00:47:19;;;;;;;0.40;0.40;;;19.40;99.90;;;;;;5069433;28;20045;-83
2023/08/15 00:49:45;;;;;;;0.20;0.20;;;19.30;99.90;;;;;;5053510;28;20037;-83
2023/08/15 00:52:13;;;;;;;0.30;0.30;;;19.30;99.90;;;;;;5052572;28;20041;-81
2023/08/15 00:54:42;;;;;;;0.40;0.40;;;19.30;99.90;;;;;;5053423;28;20045;-84
2023/08/15 00:57:10;;;;;;;0.22;0.22;;;19.20;99.90;;;;;;5053428;28;20090;-82
2023/08/15 00:59:36;;;;;;;0.30;0.30;;;19.20;99.90;;;;;;5053398;28;20127;-78
2023/08/15 01:02:02;;;;;;;0.50;0.50;;;19.20;99.90;;;;;;5053367;28;20099;-80
2023/08/15 01:04:28;;;;;;;0.20;0.20;;;19.10;99.90;;;;;;5053296;28;20458;-84
2023/08/15 01:06:54;;;;;;;0.30;0.30;;;19.10;99.90;;;;;;5052373;28;20280;-80
2023/08/15 01:09:19;;;;;;;0.30;0.30;;;19.10;99.90;;;;;;5053319;28;20064;-79
2023/08/15 01:12:21;;;;;;;1.50;0.30;;;19.00;99.90;;;;;;5053329;28;20103;-82
2023/08/15 01:14:53;;;;;;;0.32;0.30;;;19.00;99.90;;;;;;5051273;28;20552;-82
2023/08/15 01:17:28;;;;;;;0.32;0.32;;;18.90;99.90;;;;;;5057071;28;20053;-81
2023/08/15 01:19:57;;;;;;;0.20;0.20;;;18.90;99.90;;;;;;5056064;28;20048;-81
2023/08/15 01:22:27;;;;;;;0.30;0.30;;;18.90;99.90;;;;;;5057175;28;20048;-81
2023/08/15 01:24:53;;;;;;;0.30;0.30;;;18.90;99.90;;;;;;5057075;28;20499;-81
2023/08/15 01:27:18;;;;;;;0.40;0.40;;;18.80;99.90;;;;;;5057075;28;20079;-83
2023/08/15 01:29:44;;;;;;;0.33;0.33;;;18.80;99.90;;;;;;5057020;28;20450;-81
2023/08/15 01:32:57;;;;;;;0.40;0.40;;;18.80;99.90;;;;;;5057016;28;20119;-80
2023/08/15 01:35:30;;;;;;;0.30;0.30;;;18.80;99.90;;;;;;5054880;28;20076;-81
2023/08/15 01:38:26;;;;;;;0.30;0.30;;;18.70;99.90;;;;;;5054181;28;20048;-80
2023/08/15 01:40:55;;;;;;;0.28;0.28;;;18.70;99.90;;;;;;5056045;28;20461;-82
2023/08/15 01:43:22;;;;;;;0.30;0.30;;;18.70;99.90;;;;;;5056739;28;20049;-79
2023/08/15 01:45:48;;;;;;;1.15;0.50;;;18.70;99.90;;;;;;5056649;28;20106;-83
2023/08/15 01:48:15;;;;;;;0.32;0.32;;;18.70;99.90;;;;;;5056837;28;20040;-84
2023/08/15 01:50:40;;;;;;;0.50;0.50;;;18.70;99.90;;;;;;5056770;28;20090;-84
2023/08/15 01:53:06;;;;;;;0.30;0.30;;;18.70;99.90;;;;;;5056824;28;20033;-84
2023/08/15 01:55:32;;;;;;;0.30;0.30;;;18.70;99.90;;;;;;5056642;28;20373;-76
2023/08/15 01:57:57;;;;;;;0.33;0.33;;;18.60;99.90;;;;;;5056490;28;20033;-78
2023/08/15 02:00:23;;;;;;;2.07;0.47;;;18.60;99.90;;;;;;5056753;28;20170;-78
2023/08/15 02:02:48;;;;;;;0.40;0.40;;;18.60;99.90;;;;;;5055276;28;20357;-81
2023/08/15 02:05:14;;;;;;;0.30;0.30;;;18.60;99.90;;;;;;5056301;28;20036;-83
2023/08/15 02:07:40;;;;;;;0.60;0.40;;;18.60;99.90;;;;;;5056332;28;20056;-84
2023/08/15 02:10:06;;;;;;;0.30;0.30;;;18.60;99.90;;;;;;5056317;28;20066;-84
2023/08/15 02:12:31;;;;;;;0.30;0.30;;;18.60;99.90;;;;;;5056328;28;20119;-83
2023/08/15 02:14:57;;;;;;;0.30;0.30;;;18.60;99.90;;;;;;5056201;28;20036;-80
2023/08/15 02:17:23;;;;;;;0.40;0.40;;;18.60;99.90;;;;;;5056131;28;20123;-83
2023/08/15 02:19:48;;;;;;;0.30;0.30;;;18.60;99.90;;;;;;5056081;28;20045;-82
2023/08/15 02:22:14;;;;;;;0.30;0.30;;;18.60;99.90;;;;;;5056134;28;20049;-80
2023/08/15 02:24:39;;;;;;;0.20;0.20;;;18.60;99.90;;;;;;5056021;28;20037;-84
2023/08/15 02:27:05;;;;;;;0.30;0.30;;;18.60;99.90;;;;;;5054746;28;20041;-85
2023/08/15 02:29:31;;;;;;;13.17;0.83;;;18.50;99.90;;;;;;5055935;28;20455;-80
2023/08/15 02:31:57;;;;;;;0.40;0.40;;;18.60;99.90;;;;;;5055882;28;20049;-80
2023/08/15 02:34:23;;;;;;;0.30;0.30;;;18.50;99.90;;;;;;5055886;28;20072;-84
2023/08/15 02:36:48;;;;;;;0.30;0.30;;;18.50;99.90;;;;;;5055800;28;20080;-85
2023/08/15 02:39:16;;;;;;;0.30;0.30;;;18.50;99.90;;;;;;5055762;28;20044;-81
2023/08/15 02:41:42;;;;;;;0.30;0.30;;;18.50;99.90;;;;;;5055719;28;20094;-78
2023/08/15 02:44:07;;;;;;;0.20;0.20;;;18.50;99.90;;;;;;5055560;28;20053;-78
2023/08/15 02:46:33;;;;;;;0.30;0.30;;;18.50;99.90;;;;;;5055698;28;20041;-77
2023/08/15 02:48:59;;;;;;;0.30;0.30;;;18.50;99.90;;;;;;5055617;28;20064;-78
2023/08/15 02:51:25;;;;;;;0.37;0.37;;;18.50;99.90;;;;;;5071254;28;20381;-78
2023/08/15 02:53:50;;;;;;;0.40;0.40;;;18.50;99.90;;;;;;5055422;28;20052;-78
2023/08/15 02:56:16;;;;;;;0.30;0.30;;;18.50;99.90;;;;;;5055441;28;20037;-78
2023/08/15 02:58:42;;;;;;;0.37;0.30;;;18.60;99.90;;;;;;5055054;28;20044;-78
2023/08/15 03:01:07;;;;;;;0.40;0.40;;;18.50;99.90;;;;;;5055523;28;20033;-78
2023/08/15 03:03:33;;;;;;;0.30;0.30;;;18.50;99.90;;;;;;5055329;28;20033;-78
2023/08/15 03:06:00;;;;;;;0.40;0.40;;;18.50;99.90;;;;;;5055273;28;20040;-78
2023/08/15 03:08:26;;;;;;;0.52;0.52;;;18.50;99.90;;;;;;5055094;28;20084;-78
2023/08/15 03:10:52;;;;;;;0.90;0.77;;;18.60;99.90;;;;;;5055145;28;20080;-78
2023/08/15 03:13:18;;;;;;;0.30;0.30;;;18.50;99.90;;;;;;5055118;28;20041;-78
2023/08/15 03:15:52;;;;;;;0.30;0.30;;;18.60;99.90;;;;;;5055074;28;20037;-78
2023/08/15 03:18:17;;;;;;;0.40;0.40;;;18.60;99.90;;;;;;5055000;28;20053;-78
2023/08/15 03:20:43;;;;;;;1.20;0.50;;;18.70;99.90;;;;;;5054963;28;20362;-78
2023/08/15 03:23:08;;;;;;;0.30;0.30;;;18.70;99.90;;;;;;5054629;28;20033;-78
2023/08/15 03:25:34;;;;;;;0.30;0.30;;;18.70;99.90;;;;;;5054895;28;20037;-78
2023/08/15 03:27:59;;;;;;;0.30;0.30;;;18.70;99.90;;;;;;5054817;28;20041;-78
2023/08/15 03:30:26;;;;;;;0.30;0.30;;;18.80;99.90;;;;;;5054797;28;20362;-78
2023/08/15 03:32:51;;;;;;;0.30;0.30;;;18.80;99.90;;;;;;5054629;28;20439;-78
2023/08/15 03:35:17;;;;;;;0.33;0.33;;;18.80;99.90;;;;;;5054773;28;20045;-78
2023/08/15 03:37:43;;;;;;;0.50;0.50;;;18.90;99.90;;;;;;5054311;28;20040;-78
2023/08/15 03:40:09;;;;;;;0.30;0.30;;;18.90;99.90;;;;;;5054760;28;20385;-78
2023/08/15 03:42:34;;;;;;;0.40;0.40;;;18.90;99.90;;;;;;5054918;28;20040;-78
2023/08/15 03:45:00;;;;;;;0.47;0.47;;;19.00;99.90;;;;;;5054477;28;20037;-78
2023/08/15 03:47:26;;;;;;;0.30;0.30;;;18.90;99.90;;;;;;5054479;28;20392;-78
2023/08/15 03:49:51;;;;;;;0.30;0.30;;;19.00;99.90;;;;;;5054520;28;20044;-78
2023/08/15 03:52:17;;;;;;;0.30;0.30;;;19.00;99.90;;;;;;5054329;28;20469;-78
2023/08/15 03:54:42;;;;;;;0.30;0.30;;;19.00;99.90;;;;;;5055007;28;20120;-78
2023/08/15 03:57:08;;;;;;;0.40;0.40;;;19.00;99.90;;;;;;5054330;28;20532;-78
2023/08/15 03:59:34;;;;;;;0.33;0.33;;;19.00;99.90;;;;;;5070370;28;20044;-78
2023/08/15 04:01:59;;;;;;;0.33;0.33;;;19.00;99.90;;;;;;5054438;28;20091;-78
2023/08/15 04:04:25;;;;;;;0.30;0.30;;;19.00;99.90;;;;;;5054191;28;20041;-78
2023/08/15 04:06:50;;;;;;;0.27;0.27;;;19.00;99.90;;;;;;5054040;28;20045;-78
2023/08/15 04:09:16;;;;;;;0.30;0.30;;;19.10;99.90;;;;;;5054151;28;20044;-78
2023/08/15 04:11:42;;;;;;;0.40;0.37;;;19.10;99.90;;;;;;5054108;28;20465;-78
2023/08/15 04:14:07;;;;;;;0.30;0.30;;;19.10;99.90;;;;;;5053921;28;20047;-79
2023/08/15 04:16:33;;;;;;;0.30;0.30;;;19.10;99.90;;;;;;5054306;28;20411;-78
2023/08/15 04:18:58;;;;;;;0.30;0.30;;;19.20;99.90;;;;;;5053856;28;20544;-78
2023/08/15 04:21:24;;;;;;;0.30;0.30;;;19.10;99.90;;;;;;5053910;28;20088;-72
2023/08/15 04:23:50;;;;;;;1.90;0.67;;;19.20;99.90;;;;;;5054228;28;20041;-72
2023/08/15 04:26:15;;;;;;;0.50;0.40;;;19.20;99.90;;;;;;5053731;28;20377;-73
2023/08/15 04:28:41;;;;;;;0.40;0.40;;;19.20;99.90;;;;;;5053574;28;20041;-72
2023/08/15 04:31:07;;;;;;;0.30;0.30;;;19.20;99.90;;;;;;5054050;28;20546;-73
2023/08/15 04:33:32;;;;;;;0.40;0.40;;;19.20;99.90;;;;;;5053821;28;20041;-73
2023/08/15 04:35:58;;;;;;;0.43;0.40;;;19.20;99.90;;;;;;5053722;28;20064;-72
2023/08/15 04:38:24;;;;;;;0.30;0.30;;;19.20;99.90;;;;;;5053676;28;20079;-73
2023/08/15 04:40:49;;;;;;;0.23;0.23;;;19.20;99.90;;;;;;5053687;28;20049;-72
2023/08/15 04:43:15;;;;;;;0.70;0.43;;;19.30;99.90;;;;;;5053558;28;20084;-73
2023/08/15 04:45:43;;;;;;;0.40;0.40;;;19.30;99.90;;;;;;5053434;28;20037;-73
2023/08/15 04:48:10;;;;;;;0.30;0.30;;;19.30;99.90;;;;;;5053716;28;20052;-72
2023/08/15 04:50:36;;;;;;;0.40;0.40;;;19.30;99.90;;;;;;5052805;28;20480;-73
2023/08/15 04:53:02;;;;;;;0.30;0.30;;;19.30;99.90;;;;;;5053553;28;20041;-73
2023/08/15 04:55:27;;;;;;;0.20;0.20;;;19.30;99.90;;;;;;5053509;28;20045;-74
2023/08/15 04:57:53;;;;;;;0.30;0.30;;;19.30;99.90;;;;;;5053457;28;20033;-74
2023/08/15 05:00:19;;;;;;;0.30;0.30;;;19.30;99.90;;;;;;5053700;28;20051;-75
2023/08/15 05:02:47;;;;;;;0.30;0.30;;;19.30;99.90;;;;;;5053463;28;20049;-82
2023/08/15 05:05:13;;;;;;;0.30;0.30;;;19.40;99.90;;;;;;5053202;28;20090;-72
2023/08/15 05:07:39;;;;;;;0.30;0.30;;;19.40;99.90;;;;;;5053294;28;20060;-72
2023/08/15 05:10:05;;;;;;;0.67;0.40;;;19.40;99.90;;;;;;5053433;28;20102;-73
2023/08/15 05:12:31;;;;;;;0.30;0.30;;;19.40;99.90;;;;;;5054049;28;20412;-72
2023/08/15 05:14:57;;;;;;;0.53;0.40;;;19.50;99.90;;;;;;5053050;28;20032;-74
2023/08/15 05:17:23;;;;;;;0.30;0.30;;;19.50;99.90;;;;;;5052981;28;20091;-73
2023/08/15 05:19:48;;;;;;;0.40;0.40;;;19.50;99.90;;;;;;5053391;28;20052;-72
2023/08/15 05:22:14;;;;;;;0.40;0.40;;;19.50;99.90;;;;;;5052912;28;20032;-73
2023/08/15 05:24:39;;;;;;;0.67;0.67;;;19.60;99.90;;;;;;5053098;28;20041;-73
2023/08/15 05:27:05;;;;;;;0.30;0.30;;;19.60;99.90;;;;;;5053199;28;20045;-73
2023/08/15 05:29:31;;;;;;;0.23;0.23;;;19.60;99.90;;;;;;5053417;28;20045;-73
2023/08/15 05:31:56;;;;;;;0.70;0.70;;;19.60;99.90;;;;;;5053009;28;20384;-72
2023/08/15 05:34:22;;;;;;;0.60;0.60;;;19.70;99.90;;;;;;5053136;28;20049;-73
2023/08/15 05:36:48;;;;;;;0.50;0.47;;;19.70;99.90;;;;;;5052811;28;20353;-73
2023/08/15 05:39:13;;;;;;;0.53;0.40;;;19.70;99.90;;;;;;5053561;28;20037;-72
2023/08/15 05:41:39;;;;;;;0.50;0.50;;;19.80;99.90;;;;;;5053124;28;20045;-72
2023/08/15 05:44:05;;;;;;;1.00;0.50;;;19.80;99.90;;;;;;5051908;28;20068;-72
2023/08/15 05:46:30;;;;;;;0.43;0.43;;;19.80;99.90;;;;;;5052881;28;20047;-72
2023/08/15 05:48:56;;;;;;;0.50;0.50;;;19.80;99.90;;;;;;5052955;28;20049;-73
2023/08/15 05:51:22;;;;;;;0.43;0.43;;;19.80;99.90;;;;;;5052941;28;20032;-73
2023/08/15 05:53:47;;;;;;;0.33;0.33;;;19.80;99.90;;;;;;5052967;28;20044;-72
2023/08/15 05:56:13;;;;;;;0.50;0.40;;;19.80;99.90;;;;;;5053120;28;20033;-73
2023/08/15 05:58:38;;;;;;;0.30;0.30;;;19.70;99.90;;;;;;5052671;28;20461;-72
2023/08/15 06:01:04;;;;;;;0.30;0.30;;;19.70;99.90;;;;;;5053468;28;20067;-72
2023/08/15 06:03:30;;;;;;;0.30;0.30;;;19.70;99.90;;;;;;5056579;28;20123;-73
2023/08/15 06:05:56;;;;;;;0.27;0.27;;;19.60;99.90;;;;;;5056289;28;20380;-73
2023/08/15 06:08:22;;;;;;;0.40;0.38;;;19.70;99.90;;;;;;5056366;28;20127;-73
2023/08/15 06:10:47;;;;;;;4.40;0.70;;;19.70;99.90;;;;;;5056303;28;20115;-73
2023/08/15 06:13:13;;;;;;;0.53;0.50;;;19.70;99.90;;;;;;5056306;28;20091;-78
2023/08/15 06:15:38;;;;;;;0.40;0.40;;;19.70;99.90;;;;;;5056264;28;20045;-76
2023/08/15 06:18:04;;;;;;;0.23;0.23;;;19.60;99.90;;;;;;5054288;28;20122;-76
2023/08/15 06:20:30;;;;;;;0.30;0.30;;;19.60;99.90;;;;;;5055519;28;20041;-76
2023/08/15 06:22:55;;;;;;;0.30;0.30;;;19.60;99.90;;;;;;5055891;28;20037;-77
2023/08/15 06:25:21;;;;;;;0.30;0.30;;;19.60;99.90;;;;;;5055695;28;20461;-76
2023/08/15 06:27:47;;;;;;;0.30;0.30;;;19.50;99.90;;;;;;5055698;28;20503;-74
2023/08/15 06:30:13;;;;;;;0.30;0.30;;;19.50;99.90;;;;;;5055721;28;20116;-74
2023/08/15 06:32:38;;;;;;;0.20;0.20;;;19.50;99.90;;;;;;5055637;28;20098;-75
2023/08/15 06:35:05;;;;;;;0.30;0.30;;;19.50;99.90;;;;;;5053767;28;20120;-75
2023/08/15 06:37:31;;;;;;;0.40;0.40;;;19.60;99.90;;;;;;5035847;28;20033;-76
2023/08/15 06:39:57;;;;;;;0.30;0.30;;;19.60;99.90;;;;;;5035953;28;20088;-77
2023/08/15 06:42:23;;;;;;;0.30;0.30;;;19.60;99.90;;;;;;5035713;28;20076;-75
2023/08/15 06:44:48;;;;;;;1.27;0.40;;;19.60;99.90;;;;;;5035412;28;20087;-73
2023/08/15 06:47:14;;;;;;;0.30;0.30;;;19.60;99.90;;;;;;5035668;28;20041;-73
2023/08/15 06:49:40;;;;;;;0.30;0.30;;;19.60;99.90;;;;;;5034220;28;20374;-73
2023/08/15 06:52:07;;;;;;;0.40;0.40;;;19.70;99.90;;;;;;5035143;28;20041;-73
2023/08/15 06:54:33;;;;;;;0.50;0.40;;;19.80;99.90;;;;;;5034217;28;20130;-73
2023/08/15 06:56:58;;;;;;;0.80;0.80;;;19.90;99.90;;;;;;5032996;28;20124;-73
2023/08/15 06:59:24;;;;;;;0.30;0.30;;;20.00;99.90;;;;;;5035557;28;20125;-73
2023/08/15 07:01:52;;;;;;;0.30;0.30;;;20.10;99.90;;;;;;5035154;28;20077;-73
2023/08/15 07:04:18;;;;;;;0.30;0.30;;;20.20;99.90;;;;;;5034578;28;20393;-73
2023/08/15 07:06:44;;;;;;;0.57;0.57;;;20.40;99.90;;;;;;5035297;28;20045;-73
2023/08/15 07:09:10;;;;;;;0.50;0.50;;;20.50;99.90;;;;;;5035333;28;20044;-73
2023/08/15 07:11:36;;;;;;;0.35;0.35;;;20.50;99.90;;;;;;5035271;28;20038;-73
2023/08/15 07:14:02;;;;;;;0.30;0.30;;;20.60;99.90;;;;;;5034615;28;20494;-73
2023/08/15 07:16:28;;;;;;;0.37;0.37;;;20.70;99.90;;;;;;5035148;28;20045;-73
2023/08/15 07:18:53;;;;;;;0.40;0.40;;;20.80;99.90;;;;;;5035260;28;20136;-73
2023/08/15 07:21:19;;;;;;;0.40;0.40;;;20.90;99.90;;;;;;5035012;28;20120;-73
2023/08/15 07:23:45;;;;;;;0.40;0.40;;;20.90;99.90;;;;;;5035131;28;20049;-73
2023/08/15 07:26:11;;;;;;;0.30;0.30;;;21.00;99.90;;;;;;5034946;28;20044;-73
2023/08/15 07:28:37;;;;;;;0.30;0.30;;;21.10;99.90;;;;;;5035032;28;20132;-73
2023/08/15 07:31:04;;;;;;;0.30;0.30;;;21.20;99.90;;;;;;5034814;28;20068;-73
2023/08/15 07:33:29;;;;;;;0.87;0.40;;;21.30;99.90;;;;;;5034991;28;20061;-73
2023/08/15 07:35:55;;;;;;;0.40;0.40;;;21.40;99.90;;;;;;5034819;28;20052;-73
2023/08/15 07:38:20;;;;;;;0.50;0.50;;;21.40;99.90;;;;;;5034810;28;20037;-73
2023/08/15 07:40:47;;;;;;;0.40;0.40;;;21.50;99.90;;;;;;5034718;28;20040;-73
2023/08/15 07:43:13;;;;;;;0.43;0.43;;;21.60;99.90;;;;;;5034970;28;20049;-73
2023/08/15 07:45:39;;;;;;;0.27;0.27;;;21.60;99.90;;;;;;5034521;28;20037;-73
2023/08/15 07:48:05;;;;;;;0.97;0.63;;;21.60;99.90;;;;;;5034602;28;20048;-73
2023/08/15 07:50:31;;;;;;;0.45;0.45;;;21.70;99.90;;;;;;5034492;28;20037;-73
2023/08/15 07:52:58;;;;;;;0.30;0.30;;;21.80;99.90;;;;;;5034530;28;20458;-73
2023/08/15 07:55:24;;;;;;;1.17;0.43;;;21.90;99.90;;;;;;5034442;28;20040;-73
2023/08/15 07:57:50;;;;;;;0.30;0.30;;;22.00;99.90;;;;;;5034366;28;20037;-73
2023/08/15 08:00:16;;;;;;;0.30;0.30;;;22.10;99.90;;;;;;5034590;28;20041;-73
2023/08/15 08:02:46;;;;;;;0.30;0.30;;;22.10;99.90;;;;;;5034325;28;20057;-73
2023/08/15 08:05:15;;;;;;;0.80;0.65;;;22.20;99.90;;;;;;5034115;28;20076;-73
2023/08/15 08:07:42;;;;;;;0.38;0.38;;;22.30;99.90;;;;;;5034182;28;20385;-73
2023/08/15 08:10:08;;;;;;;0.30;0.30;;;22.40;99.90;;;;;;5034132;28;20041;-73
2023/08/15 08:12:34;;;;;;;0.30;0.30;;;22.40;99.90;;;;;;5034085;28;20375;-73
2023/08/15 08:15:00;;;;;;;0.30;0.30;;;22.50;99.90;;;;;;5034110;28;20045;-73
2023/08/15 08:17:26;;;;;;;0.40;0.37;;;22.60;99.90;;;;;;5033798;28;20051;-74
2023/08/15 08:19:52;;;;;;;0.30;0.30;;;22.60;99.90;;;;;;5033770;28;20085;-74
2023/08/15 08:22:18;;;;;;;0.30;0.30;;;22.60;99.90;;;;;;5034144;28;20135;-74
2023/08/15 08:24:43;;;;;;;0.30;0.30;;;22.50;99.90;;;;;;5032776;28;20049;-74
2023/08/15 08:27:09;;;;;;;0.30;0.30;;;22.60;99.90;;;;;;5033691;28;20038;-74
2023/08/15 08:29:34;;;;;;;0.20;0.20;;;22.50;99.90;;;;;;5033873;28;20457;-74
2023/08/15 08:32:00;;;;;;;0.30;0.30;;;22.60;99.90;;;;;;5033856;28;20064;-74
2023/08/15 08:34:26;;;;;;;0.20;0.20;;;22.60;99.90;;;;;;5033466;28;20087;-74
2023/08/15 08:36:51;;;;;;;0.20;0.20;;;22.50;99.90;;;;;;5034441;28;20084;-74
2023/08/15 08:39:18;;;;;;;0.47;0.43;;;22.50;99.90;;;;;;5033741;28;20473;-74
2023/08/15 08:41:43;;;;;;;0.20;0.20;;;22.40;99.90;;;;;;5049056;28;20052;-73
2023/08/15 08:44:11;;;;;;;0.40;0.40;;;22.30;99.90;;;;;;5033662;28;20447;-73
2023/08/15 08:46:37;;;;;;;0.32;0.32;;;22.30;99.90;;;;;;5033396;28;20121;-71
2023/08/15 08:49:04;;;;;;;0.30;0.30;;;22.20;99.90;;;;;;5033466;28;20091;-71
2023/08/15 08:51:32;;;;;;;0.50;0.50;;;22.20;99.90;;;;;;5033429;28;20045;-72
2023/08/15 08:53:58;;;;;;;0.30;0.30;;;22.10;99.90;;;;;;5033812;28;20053;-72
2023/08/15 08:56:29;;;;;;;0.43;0.43;;;22.10;99.90;;;;;;5033452;28;20037;-72
2023/08/15 08:59:10;;;;;;;0.20;0.20;;;22.10;99.90;;;;;;5033685;28;20128;-71
2023/08/15 09:01:37;;;;;;;0.30;0.30;;;22.10;99.90;;;;;;5033409;28;20107;-71
2023/08/15 09:04:03;;;;;;;0.40;0.40;;;22.00;99.90;;;;;;5033606;28;20046;-72
2023/08/15 09:06:29;;;;;;;0.22;0.22;;;22.10;99.90;;;;;;5033307;28;20048;-71
2023/08/15 09:08:57;;;;;;;0.27;0.27;;;22.10;99.90;;;;;;5033381;28;20045;-71
2023/08/15 09:11:22;;;;;;;0.30;0.30;;;22.10;99.90;;;;;;5033304;28;20041;-71
2023/08/15 09:13:49;;;;;;;0.30;0.30;;;22.10;99.90;;;;;;5033321;28;20051;-72
2023/08/15 09:16:17;;;;;;;0.57;0.30;;;22.10;99.90;;;;;;5033136;28;20049;-71
2023/08/15 09:18:46;;;;;;;0.30;0.30;;;22.10;99.90;;;;;;5032926;28;20041;-71
2023/08/15 09:21:15;;;;;;;0.30;0.30;;;22.10;99.90;;;;;;5033666;28;20045;-71
2023/08/15 09:23:41;;;;;;;0.30;0.30;;;22.10;99.90;;;;;;5033261;28;20041;-72
2023/08/15 09:26:14;;;;;;;0.30;0.30;;;22.00;99.90;;;;;;5033140;28;20443;-71
2023/08/15 09:28:44;;;;;;;0.28;0.28;;;22.00;99.90;;;;;;5033142;28;20038;-71
2023/08/15 09:31:11;;;;;;;0.32;0.32;;;22.00;99.90;;;;;;5033180;28;20041;-72
2023/08/15 09:33:37;;;;;;;0.32;0.32;;;22.10;99.90;;;;;;5033045;28;20041;-71
2023/08/15 09:36:05;;;;;;;0.20;0.20;;;22.10;99.90;;;;;;5033703;28;20038;-71
2023/08/15 09:38:31;;;;;;;0.30;0.30;;;22.20;99.90;;;;;;5036925;28;20508;-71
2023/08/15 09:40:57;;;;;;;0.40;0.40;;;22.20;99.90;;;;;;5036848;28;20051;-71
2023/08/15 09:43:23;;;;;;;0.32;0.30;;;22.30;99.90;;;;;;5036840;28;20037;-72
2023/08/15 09:45:49;;;;;;;0.33;0.33;;;22.40;99.90;;;;;;5036772;28;20376;-71
2023/08/15 09:48:16;;;;;;;0.67;0.67;;;22.50;99.90;;;;;;5036997;28;20041;-71
2023/08/15 09:50:44;;;;;;;0.50;0.50;;;22.50;99.90;;;;;;5036410;28;20470;-71
2023/08/15 09:53:10;;;;;;;0.30;0.30;;;22.50;99.90;;;;;;5036675;28;20095;-71
2023/08/15 09:55:36;;;;;;;0.30;0.30;;;22.40;99.90;;;;;;5036657;28;20041;-71
2023/08/15 09:58:03;;;;;;;0.30;0.30;;;22.30;99.90;;;;;;5036585;28;20053;-71
2023/08/15 10:00:29;;;;;;;;;;;22.30;99.90;;;;;;5036929;28;20044;-71
2023/08/15 10:03:06;;;;;;;0.32;0.32;;;22.10;99.90;;;;;;5036482;28;19975;-71
2023/08/15 10:05:33;;;;;;;0.65;0.65;;;22.00;99.90;;;;;;5036754;28;20382;-71
2023/08/15 10:07:59;;;;;;;0.30;0.30;;;22.00;99.90;;;;;;5036443;28;20044;-71
2023/08/15 10:10:27;;;;;;;0.30;0.30;;;21.90;99.90;;;;;;5036405;28;20057;-71
2023/08/15 10:12:54;;;;;;;0.40;0.40;;;22.10;99.90;;;;;;5035970;28;20124;-71
2023/08/15 10:15:21;;;;;;;0.20;0.20;;;22.10;99.90;;;;;;5036262;28;20041;-71
2023/08/15 10:17:47;;;;;;;0.20;0.20;;;22.10;99.90;;;;;;5036038;28;20060;-71
2023/08/15 10:20:17;;;;;;;14.10;0.77;;;22.10;99.90;;;;;;5035906;28;20077;-72
2023/08/15 10:22:43;;;;;;;0.20;0.20;;;22.20;99.90;;;;;;5036175;28;20040;-72
2023/08/15 10:25:24;;;;;;;0.23;0.23;;;22.40;99.90;;;;;;5035892;28;20030;-73
2023/08/15 10:27:54;;;;;;;0.30;0.30;;;22.50;99.90;;;;;;5036042;28;20110;-73
2023/08/15 10:30:46;;;;;;;0.20;0.20;;;22.70;99.90;;;;;;5036332;28;20045;-73
2023/08/15 10:33:13;;;;;;;0.20;0.20;;;22.80;99.90;;;;;;5035598;28;20537;-72
2023/08/15 10:35:50;;;;;;;0.20;0.20;;;23.00;99.90;;;;;;5035490;28;20044;-73
2023/08/15 10:38:16;;;;;;;;;;;23.20;99.90;;;;;;5036259;28;20041;-72
2023/08/15 10:40:43;;;;;;;0.30;0.30;;;23.30;99.90;;;;;;5035504;28;19917;-72
2023/08/15 10:43:11;;;;;;;0.30;0.30;;;23.50;99.90;;;;;;5035713;28;20048;-72
2023/08/15 10:45:39;;;;;;;0.20;0.20;;;23.60;99.90;;;;;;5035653;28;20033;-72
2023/08/15 10:48:05;;;;;;;0.40;0.40;;;23.60;99.90;;;;;;5034667;28;20124;-72
2023/08/15 10:50:31;;;;;;;0.55;0.43;;;23.50;99.90;;;;;;5035601;28;20041;-72
2023/08/15 10:53:01;;;;;;;0.20;0.20;;;23.40;99.90;;;;;;5036055;28;20043;-73
2023/08/15 10:55:32;;;;;;;0.20;0.20;;;23.30;99.90;;;;;;5035522;28;20037;-73
2023/08/15 10:58:01;;;;;;;0.20;0.20;;;23.30;99.90;;;;;;5035231;28;20490;-72
2023/08/15 11:00:27;;;;;;;0.30;0.30;;;23.50;99.90;;;;;;5035047;28;20041;-75
2023/08/15 11:02:54;;;;;;;1.35;0.90;;;23.60;99.90;;;;;;5035299;28;20462;-79
2023/08/15 11:05:38;;;;;;;;;;;23.80;99.90;;;;;;5035748;28;20045;-79
2023/08/15 11:08:17;;;;;;;0.30;0.30;;;23.70;99.90;;;;;;5035121;28;19917;-75
2023/08/15 11:10:44;;;;;;;0.60;0.60;;;23.70;99.90;;;;;;5035194;28;20400;-75
2023/08/15 11:13:10;;;;;;;1.25;0.60;;;23.60;99.90;;;;;;5035272;28;20042;-76
2023/08/15 11:15:36;;;;;;;0.20;0.20;;;23.60;99.90;;;;;;5035147;28;20043;-77
2023/08/15 11:18:02;;;;;;;0.45;0.40;;;23.60;99.90;;;;;;5035509;28;20083;-75
2023/08/15 11:20:29;;;;;;;0.20;0.20;;;23.70;99.90;;;;;;5035004;28;20041;-77
2023/08/15 11:22:58;;;;;;;0.40;0.40;;;23.80;99.90;;;;;;5035010;28;20050;-78
2023/08/15 11:25:24;;;;;;;0.30;0.30;;;24.00;99.90;;;;;;5034792;28;20045;-76
2023/08/15 11:27:50;;;;;;;0.20;0.20;;;24.20;99.90;;;;;;5034976;28;20041;-76
2023/08/15 11:30:17;;;;;;;0.30;0.30;;;24.20;99.90;;;;;;5034851;28;20041;-79
2023/08/15 11:32:42;;;;;;;;;;;24.30;99.90;;;;;;5035606;28;20033;-81
2023/08/15 11:35:10;;;;;;;0.45;0.45;;;24.30;99.90;;;;;;5034732;28;19916;-77
2023/08/15 11:37:36;;;;;;;0.30;0.20;;;24.40;99.90;;;;;;5034758;28;20038;-79
2023/08/15 11:40:04;;;;;;;0.20;0.20;;;24.30;99.90;;;;;;5034733;28;20555;-73
2023/08/15 11:42:30;;;;;;;0.20;0.20;;;24.30;99.90;;;;;;5049908;28;20040;-73
2023/08/15 11:45:07;;;;;;;0.25;0.25;;;24.30;99.90;;;;;;5034159;28;20094;-73
2023/08/15 11:47:33;;;;;;;0.20;0.20;;;24.30;99.90;;;;;;5034937;28;20085;-73
2023/08/15 11:50:10;;;;;;;0.57;0.57;;;24.40;99.90;;;;;;5034467;28;20077;-75
2023/08/15 11:52:45;;;;;;;0.30;0.30;;;24.40;99.90;;;;;;5034557;28;20116;-79
2023/08/15 11:55:12;;;;;;;0.28;0.28;;;24.50;99.90;;;;;;5034364;28;20486;-79
2023/08/15 11:57:37;;;;;;;0.20;0.20;;;24.60;99.90;;;;;;5034494;28;20385;-79
2023/08/15 12:00:05;;;;;;;0.67;0.67;;;24.70;99.90;;;;;;5034473;28;20041;-78
2023/08/15 12:02:33;;;;;;;0.20;0.20;;;24.70;99.90;;;;;;5033987;28;20497;-79
2023/08/15 12:05:18;;;;;;;0.20;0.20;;;24.70;99.90;;;;;;5034347;28;20037;-79
2023/08/15 12:07:45;;;;;;;0.20;0.20;;;24.80;99.90;;;;;;5034388;28;20049;-79
2023/08/15 12:10:12;;;;;;;0.30;0.30;;;24.80;99.90;;;;;;5034163;28;20045;-77
2023/08/15 12:12:40;;;;;;;0.20;0.20;;;24.90;99.90;;;;;;5034579;28;20038;-78
2023/08/15 12:15:08;;;;;;;0.30;0.30;;;24.90;99.90;;;;;;5034068;28;20033;-75
2023/08/15 12:17:34;;;;;;;1.05;0.30;;;25.10;99.90;;;;;;5040488;28;20045;-78
2023/08/15 12:20:11;;;;;;;0.20;0.20;;;25.10;99.90;;;;;;5053257;28;20072;-79
2023/08/15 12:22:41;;;;;;;0.20;0.20;;;25.30;99.90;;;;;;5053674;28;20049;-77
2023/08/15 12:25:08;;;;;;;0.25;0.25;;;25.40;99.90;;;;;;5053875;28;20128;-78
2023/08/15 12:27:37;;;;;;;0.43;0.43;;;25.40;99.90;;;;;;5053348;28;20041;-76
2023/08/15 12:30:07;;;;;;;0.30;0.30;;;25.40;99.90;;;;;;5053475;28;20106;-79
2023/08/15 12:32:33;;;;;;;0.30;0.30;;;25.30;99.90;;;;;;5053406;28;20059;-76
2023/08/15 12:34:59;;;;;;;0.38;0.38;;;25.10;99.90;;;;;;5053109;28;20037;-76
2023/08/15 12:37:25;;;;;;;0.20;0.20;;;25.10;99.90;;;;;;5053545;28;20488;-79
2023/08/15 12:39:51;;;;;;;0.30;0.30;;;25.00;99.90;;;;;;5053450;28;20052;-78
2023/08/15 12:42:17;;;;;;;0.28;0.28;;;24.80;99.90;;;;;;5053160;28;20385;-80
2023/08/15 12:44:42;;;;;;;0.30;0.30;;;24.80;99.90;;;;;;5053497;28;20144;-77
2023/08/15 12:47:09;;;;;;;0.40;0.40;;;24.90;99.90;;;;;;5053459;28;20123;-78